sensor_id;sensor_type;location;lat;lon;timestamp;temperature;humidity
75170;SHT31;63749;49.186;9.222;2023-10-09T00:00:57;12.22;96.20
75170;SHT31;63749;49.186;9.222;2023-10-09T00:03:37;12.21;96.07
75170;SHT31;63749;49.186;9.222;2023-10-09T00:06:03;12.24;96.06
75170;SHT31;63749;49.186;9.222;2023-10-09T00:08:29;12.28;96.06
75170;SHT31;63749;49.186;9.222;2023-10-09T00:10:59;12.31;95.94
75170;SHT31;63749;49.186;9.222;2023-10-09T00:13:40;12.31;95.70
75170;SHT31;63749;49.186;9.222;2023-10-09T00:16:18;12.35;95.80
75170;SHT31;63749;49.186;9.222;2023-10-09T00:19:04;12.32;95.75
75170;SHT31;63749;49.186;9.222;2023-10-09T00:21:45;12.29;95.71
75170;SHT31;63749;49.186;9.222;2023-10-09T00:24:11;12.25;95.65
75170;SHT31;63749;49.186;9.222;2023-10-09T00:26:44;12.17;95.79
75170;SHT31;63749;49.186;9.222;2023-10-09T00:29:12;12.08;95.98
75170;SHT31;63749;49.186;9.222;2023-10-09T00:31:42;12.04;96.16
75170;SHT31;63749;49.186;9.222;2023-10-09T00:34:18;12.01;96.08
75170;SHT31;63749;49.186;9.222;2023-10-09T00:36:47;11.97;96.35
75170;SHT31;63749;49.186;9.222;2023-10-09T00:39:19;11.95;96.45
75170;SHT31;63749;49.186;9.222;2023-10-09T00:42:06;11.95;96.56
75170;SHT31;63749;49.186;9.222;2023-10-09T00:44:32;11.95;96.54
75170;SHT31;63749;49.186;9.222;2023-10-09T00:47:14;11.90;96.54
75170;SHT31;63749;49.186;9.222;2023-10-09T00:49:49;11.95;96.76
75170;SHT31;63749;49.186;9.222;2023-10-09T00:52:16;11.97;96.80
75170;SHT31;63749;49.186;9.222;2023-10-09T00:54:54;12.01;96.68
75170;SHT31;63749;49.186;9.222;2023-10-09T00:57:27;12.01;96.58
75170;SHT31;63749;49.186;9.222;2023-10-09T00:59:54;12.05;96.63
75170;SHT31;63749;49.186;9.222;2023-10-09T01:02:27;12.10;96.48
75170;SHT31;63749;49.186;9.222;2023-10-09T01:05:02;12.11;96.44
75170;SHT31;63749;49.186;9.222;2023-10-09T01:07:38;12.08;96.48
75170;SHT31;63749;49.186;9.222;2023-10-09T01:10:06;12.11;96.21
75170;SHT31;63749;49.186;9.222;2023-10-09T01:12:34;12.10;96.21
75170;SHT31;63749;49.186;9.222;2023-10-09T01:15:07;12.14;96.14
75170;SHT31;63749;49.186;9.222;2023-10-09T01:17:33;12.17;96.12
75170;SHT31;63749;49.186;9.222;2023-10-09T01:20:02;12.18;96.12
75170;SHT31;63749;49.186;9.222;2023-10-09T01:22:40;12.16;95.99
75170;SHT31;63749;49.186;9.222;2023-10-09T01:25:08;12.16;96.04
75170;SHT31;63749;49.186;9.222;2023-10-09T01:27:33;12.13;96.13
75170;SHT31;63749;49.186;9.222;2023-10-09T01:29:59;12.16;96.25
75170;SHT31;63749;49.186;9.222;2023-10-09T01:32:25;12.16;96.31
75170;SHT31;63749;49.186;9.222;2023-10-09T01:34:52;12.18;96.31
75170;SHT31;63749;49.186;9.222;2023-10-09T01:37:21;12.22;96.21
75170;SHT31;63749;49.186;9.222;2023-10-09T01:39:56;12.27;96.00
75170;SHT31;63749;49.186;9.222;2023-10-09T01:42:24;12.31;95.97
75170;SHT31;63749;49.186;9.222;2023-10-09T01:44:57;12.31;95.90
75170;SHT31;63749;49.186;9.222;2023-10-09T01:47:48;12.34;95.93
75170;SHT31;63749;49.186;9.222;2023-10-09T01:50:17;12.38;95.83
75170;SHT31;63749;49.186;9.222;2023-10-09T01:53:00;12.38;95.62
75170;SHT31;63749;49.186;9.222;2023-10-09T01:55:28;12.42;95.44
75170;SHT31;63749;49.186;9.222;2023-10-09T01:58:07;12.42;95.48
75170;SHT31;63749;49.186;9.222;2023-10-09T02:00:50;12.42;95.53
75170;SHT31;63749;49.186;9.222;2023-10-09T02:03:22;12.44;95.39
75170;SHT31;63749;49.186;9.222;2023-10-09T02:06:01;12.41;95.49
75170;SHT31;63749;49.186;9.222;2023-10-09T02:08:29;12.46;95.38
75170;SHT31;63749;49.186;9.222;2023-10-09T02:10:56;12.49;95.28
75170;SHT31;63749;49.186;9.222;2023-10-09T02:13:23;12.53;95.12
75170;SHT31;63749;49.186;9.222;2023-10-09T02:15:56;12.53;95.12
75170;SHT31;63749;49.186;9.222;2023-10-09T02:18:38;12.56;94.96
75170;SHT31;63749;49.186;9.222;2023-10-09T02:21:18;12.56;95.04
75170;SHT31;63749;49.186;9.222;2023-10-09T02:23:54;12.60;95.09
75170;SHT31;63749;49.186;9.222;2023-10-09T02:26:22;12.66;94.88
75170;SHT31;63749;49.186;9.222;2023-10-09T02:29:00;12.66;94.81
75170;SHT31;63749;49.186;9.222;2023-10-09T02:31:31;12.68;94.65
75170;SHT31;63749;49.186;9.222;2023-10-09T02:34:08;12.73;94.45
75170;SHT31;63749;49.186;9.222;2023-10-09T02:36:35;12.79;94.29
75170;SHT31;63749;49.186;9.222;2023-10-09T02:39:09;12.78;94.36
75170;SHT31;63749;49.186;9.222;2023-10-09T02:41:52;12.76;94.21
75170;SHT31;63749;49.186;9.222;2023-10-09T02:44:21;12.75;94.16
75170;SHT31;63749;49.186;9.222;2023-10-09T02:46:50;12.75;94.12
75170;SHT31;63749;49.186;9.222;2023-10-09T02:49:16;12.70;94.13
75170;SHT31;63749;49.186;9.222;2023-10-09T02:51:41;12.70;94.06
75170;SHT31;63749;49.186;9.222;2023-10-09T02:54:13;12.70;93.67
75170;SHT31;63749;49.186;9.222;2023-10-09T02:56:52;12.72;93.33
75170;SHT31;63749;49.186;9.222;2023-10-09T02:59:23;12.70;93.48
75170;SHT31;63749;49.186;9.222;2023-10-09T03:01:49;12.68;93.47
75170;SHT31;63749;49.186;9.222;2023-10-09T03:04:15;12.66;93.73
75170;SHT31;63749;49.186;9.222;2023-10-09T03:06:41;12.65;93.71
75170;SHT31;63749;49.186;9.222;2023-10-09T03:09:16;12.68;93.71
75170;SHT31;63749;49.186;9.222;2023-10-09T03:11:46;12.65;93.77
75170;SHT31;63749;49.186;9.222;2023-10-09T03:14:13;12.63;93.77
75170;SHT31;63749;49.186;9.222;2023-10-09T03:16:39;12.59;93.85
75170;SHT31;63749;49.186;9.222;2023-10-09T03:19:04;12.60;93.93
75170;SHT31;63749;49.186;9.222;2023-10-09T03:21:30;12.58;93.90
75170;SHT31;63749;49.186;9.222;2023-10-09T03:23:55;12.56;94.00
75170;SHT31;63749;49.186;9.222;2023-10-09T03:26:22;12.56;94.05
75170;SHT31;63749;49.186;9.222;2023-10-09T03:28:51;12.56;93.98
75170;SHT31;63749;49.186;9.222;2023-10-09T03:31:18;12.55;94.10
75170;SHT31;63749;49.186;9.222;2023-10-09T03:33:44;12.60;94.12
75170;SHT31;63749;49.186;9.222;2023-10-09T03:36:09;12.60;93.94
75170;SHT31;63749;49.186;9.222;2023-10-09T03:38:38;12.60;93.73
75170;SHT31;63749;49.186;9.222;2023-10-09T03:41:05;12.58;93.69
75170;SHT31;63749;49.186;9.222;2023-10-09T03:43:34;12.55;93.82
75170;SHT31;63749;49.186;9.222;2023-10-09T03:46:07;12.53;93.84
75170;SHT31;63749;49.186;9.222;2023-10-09T03:48:49;12.48;93.88
75170;SHT31;63749;49.186;9.222;2023-10-09T03:51:15;12.42;93.86
75170;SHT31;63749;49.186;9.222;2023-10-09T03:53:47;12.38;94.04
75170;SHT31;63749;49.186;9.222;2023-10-09T03:56:13;12.35;94.10
75170;SHT31;63749;49.186;9.222;2023-10-09T03:58:41;12.27;94.12
75170;SHT31;63749;49.186;9.222;2023-10-09T04:01:14;12.21;94.19
75170;SHT31;63749;49.186;9.222;2023-10-09T04:03:48;12.16;94.40
75170;SHT31;63749;49.186;9.222;2023-10-09T04:06:13;12.05;94.53
75170;SHT31;63749;49.186;9.222;2023-10-09T04:08:40;12.08;94.73
75170;SHT31;63749;49.186;9.222;2023-10-09T04:11:12;12.05;94.74
75170;SHT31;63749;49.186;9.222;2023-10-09T04:13:44;12.01;94.87
75170;SHT31;63749;49.186;9.222;2023-10-09T04:16:14;11.95;95.03
75170;SHT31;63749;49.186;9.222;2023-10-09T04:19:00;11.91;95.12
75170;SHT31;63749;49.186;9.222;2023-10-09T04:21:36;11.93;95.38
75170;SHT31;63749;49.186;9.222;2023-10-09T04:24:05;11.91;95.26
75170;SHT31;63749;49.186;9.222;2023-10-09T04:26:40;11.90;95.42
75170;SHT31;63749;49.186;9.222;2023-10-09T04:29:16;11.89;95.39
75170;SHT31;63749;49.186;9.222;2023-10-09T04:32:03;11.90;95.42
75170;SHT31;63749;49.186;9.222;2023-10-09T04:34:33;11.86;95.65
75170;SHT31;63749;49.186;9.222;2023-10-09T04:37:03;11.81;95.86
75170;SHT31;63749;49.186;9.222;2023-10-09T04:39:44;11.86;95.95
75170;SHT31;63749;49.186;9.222;2023-10-09T04:42:13;11.89;96.02
75170;SHT31;63749;49.186;9.222;2023-10-09T04:44:45;11.95;95.95
75170;SHT31;63749;49.186;9.222;2023-10-09T04:47:29;12.04;95.82
75170;SHT31;63749;49.186;9.222;2023-10-09T04:50:14;12.22;95.43
75170;SHT31;63749;49.186;9.222;2023-10-09T04:53:00;12.32;94.93
75170;SHT31;63749;49.186;9.222;2023-10-09T04:55:44;12.38;94.61
75170;SHT31;63749;49.186;9.222;2023-10-09T04:58:22;12.38;94.67
75170;SHT31;63749;49.186;9.222;2023-10-09T05:00:52;12.35;94.52
75170;SHT31;63749;49.186;9.222;2023-10-09T05:03:23;12.46;93.94
75170;SHT31;63749;49.186;9.222;2023-10-09T05:06:09;12.50;93.78
75170;SHT31;63749;49.186;9.222;2023-10-09T05:08:48;12.49;93.97
75170;SHT31;63749;49.186;9.222;2023-10-09T05:11:14;12.49;93.93
75170;SHT31;63749;49.186;9.222;2023-10-09T05:13:59;12.55;93.63
75170;SHT31;63749;49.186;9.222;2023-10-09T05:16:37;12.62;93.42
75170;SHT31;63749;49.186;9.222;2023-10-09T05:19:03;12.62;92.86
75170;SHT31;63749;49.186;9.222;2023-10-09T05:21:36;12.58;92.69
75170;SHT31;63749;49.186;9.222;2023-10-09T05:24:11;12.58;92.95
75170;SHT31;63749;49.186;9.222;2023-10-09T05:26:44;12.53;93.09
75170;SHT31;63749;49.186;9.222;2023-10-09T05:29:22;12.50;93.05
75170;SHT31;63749;49.186;9.222;2023-10-09T05:31:54;12.56;93.03
75170;SHT31;63749;49.186;9.222;2023-10-09T05:34:29;12.56;93.30
75170;SHT31;63749;49.186;9.222;2023-10-09T05:37:20;12.53;93.32
75170;SHT31;63749;49.186;9.222;2023-10-09T05:39:58;12.58;93.12
75170;SHT31;63749;49.186;9.222;2023-10-09T05:42:33;12.62;93.16
75170;SHT31;63749;49.186;9.222;2023-10-09T05:45:03;12.66;93.05
75170;SHT31;63749;49.186;9.222;2023-10-09T05:47:51;12.70;92.89
75170;SHT31;63749;49.186;9.222;2023-10-09T05:50:31;12.76;92.90
75170;SHT31;63749;49.186;9.222;2023-10-09T05:53:00;12.78;92.76
75170;SHT31;63749;49.186;9.222;2023-10-09T05:55:42;12.80;92.74
75170;SHT31;63749;49.186;9.222;2023-10-09T05:58:26;12.87;92.55
75170;SHT31;63749;49.186;9.222;2023-10-09T06:01:10;12.93;92.01
75170;SHT31;63749;49.186;9.222;2023-10-09T06:04:04;12.96;91.46
75170;SHT31;63749;49.186;9.222;2023-10-09T06:06:41;12.97;92.04
75170;SHT31;63749;49.186;9.222;2023-10-09T06:09:21;12.97;92.05
75170;SHT31;63749;49.186;9.222;2023-10-09T06:11:49;12.99;92.06
75170;SHT31;63749;49.186;9.222;2023-10-09T06:14:19;13.10;91.60
75170;SHT31;63749;49.186;9.222;2023-10-09T06:16:51;13.14;91.41
75170;SHT31;63749;49.186;9.222;2023-10-09T06:19:24;13.24;91.11
75170;SHT31;63749;49.186;9.222;2023-10-09T06:22:00;13.20;91.52
75170;SHT31;63749;49.186;9.222;2023-10-09T06:24:38;13.21;91.40
75170;SHT31;63749;49.186;9.222;2023-10-09T06:27:11;13.26;91.41
75170;SHT31;63749;49.186;9.222;2023-10-09T06:29:38;13.26;91.33
75170;SHT31;63749;49.186;9.222;2023-10-09T06:32:17;13.27;91.27
75170;SHT31;63749;49.186;9.222;2023-10-09T06:34:50;13.37;91.04
75170;SHT31;63749;49.186;9.222;2023-10-09T06:37:24;13.48;90.85
75170;SHT31;63749;49.186;9.222;2023-10-09T06:39:55;13.48;90.92
75170;SHT31;63749;49.186;9.222;2023-10-09T06:42:24;13.54;90.98
75170;SHT31;63749;49.186;9.222;2023-10-09T06:47:29;14.47;93.00
75170;SHT31;63749;49.186;9.222;2023-10-09T06:50:02;14.60;89.54
75170;SHT31;63749;49.186;9.222;2023-10-09T06:52:46;15.14;89.27
75170;SHT31;63749;49.186;9.222;2023-10-09T06:55:44;15.21;89.32
75170;SHT31;63749;49.186;9.222;2023-10-09T06:58:21;15.05;86.60
75170;SHT31;63749;49.186;9.222;2023-10-09T07:00:53;14.84;87.76
75170;SHT31;63749;49.186;9.222;2023-10-09T07:03:28;14.74;86.77
75170;SHT31;63749;49.186;9.222;2023-10-09T07:06:10;15.22;86.59
75170;SHT31;63749;49.186;9.222;2023-10-09T07:08:51;15.39;86.33
75170;SHT31;63749;49.186;9.222;2023-10-09T07:11:46;15.29;86.67
75170;SHT31;63749;49.186;9.222;2023-10-09T07:14:12;15.33;86.33
75170;SHT31;63749;49.186;9.222;2023-10-09T07:17:06;15.43;86.25
75170;SHT31;63749;49.186;9.222;2023-10-09T07:19:42;15.49;85.08
75170;SHT31;63749;49.186;9.222;2023-10-09T07:22:10;15.32;85.11
75170;SHT31;63749;49.186;9.222;2023-10-09T07:27:30;15.74;84.59
75170;SHT31;63749;49.186;9.222;2023-10-09T07:30:25;15.59;82.89
75170;SHT31;63749;49.186;9.222;2023-10-09T07:33:03;15.56;82.84
75170;SHT31;63749;49.186;9.222;2023-10-09T07:35:35;15.53;82.96
75170;SHT31;63749;49.186;9.222;2023-10-09T07:38:11;15.90;84.02
75170;SHT31;63749;49.186;9.222;2023-10-09T07:40:41;15.97;82.67
75170;SHT31;63749;49.186;9.222;2023-10-09T07:43:29;16.10;81.27
75170;SHT31;63749;49.186;9.222;2023-10-09T07:46:02;16.18;81.13
75170;SHT31;63749;49.186;9.222;2023-10-09T07:48:31;16.14;79.60
75170;SHT31;63749;49.186;9.222;2023-10-09T07:51:18;16.08;79.24
75170;SHT31;63749;49.186;9.222;2023-10-09T07:53:49;16.04;79.72
75170;SHT31;63749;49.186;9.222;2023-10-09T07:56:15;16.05;79.49
75170;SHT31;63749;49.186;9.222;2023-10-09T07:58:46;16.05;80.08
75170;SHT31;63749;49.186;9.222;2023-10-09T08:01:13;16.08;80.00
75170;SHT31;63749;49.186;9.222;2023-10-09T08:03:46;16.14;80.26
75170;SHT31;63749;49.186;9.222;2023-10-09T08:06:12;16.21;80.72
75170;SHT31;63749;49.186;9.222;2023-10-09T08:09:11;16.20;80.58
75170;SHT31;63749;49.186;9.222;2023-10-09T08:11:40;16.25;80.19
75170;SHT31;63749;49.186;9.222;2023-10-09T08:14:09;16.24;80.65
75170;SHT31;63749;49.186;9.222;2023-10-09T08:16:53;16.36;81.10
75170;SHT31;63749;49.186;9.222;2023-10-09T08:19:37;16.35;81.93
75170;SHT31;63749;49.186;9.222;2023-10-09T08:22:17;16.45;80.98
75170;SHT31;63749;49.186;9.222;2023-10-09T08:25:03;16.53;80.95
75170;SHT31;63749;49.186;9.222;2023-10-09T08:27:30;16.65;80.59
75170;SHT31;63749;49.186;9.222;2023-10-09T08:29:59;16.82;80.44
75170;SHT31;63749;49.186;9.222;2023-10-09T08:32:47;16.92;80.00
75170;SHT31;63749;49.186;9.222;2023-10-09T08:35:52;17.02;79.60
75170;SHT31;63749;49.186;9.222;2023-10-09T08:38:21;17.14;77.73
75170;SHT31;63749;49.186;9.222;2023-10-09T08:40:50;17.24;75.48
75170;SHT31;63749;49.186;9.222;2023-10-09T08:45:47;17.51;75.32
75170;SHT31;63749;49.186;9.222;2023-10-09T08:48:13;17.58;75.00
75170;SHT31;63749;49.186;9.222;2023-10-09T08:50:44;17.62;73.24
75170;SHT31;63749;49.186;9.222;2023-10-09T08:53:13;17.65;72.68
75170;SHT31;63749;49.186;9.222;2023-10-09T08:55:40;17.79;73.20
75170;SHT31;63749;49.186;9.222;2023-10-09T08:58:06;17.92;73.28
75170;SHT31;63749;49.186;9.222;2023-10-09T09:00:55;18.09;73.10
75170;SHT31;63749;49.186;9.222;2023-10-09T09:03:21;18.09;72.60
75170;SHT31;63749;49.186;9.222;2023-10-09T09:05:58;18.17;72.91
75170;SHT31;63749;49.186;9.222;2023-10-09T09:08:26;18.36;72.05
75170;SHT31;63749;49.186;9.222;2023-10-09T09:11:00;18.58;72.44
75170;SHT31;63749;49.186;9.222;2023-10-09T09:13:47;18.61;69.71
75170;SHT31;63749;49.186;9.222;2023-10-09T09:16:24;18.88;69.62
75170;SHT31;63749;49.186;9.222;2023-10-09T09:18:58;18.94;69.38
75170;SHT31;63749;49.186;9.222;2023-10-09T09:21:38;19.08;68.84
75170;SHT31;63749;49.186;9.222;2023-10-09T09:24:08;19.29;67.80
75170;SHT31;63749;49.186;9.222;2023-10-09T09:26:46;19.38;67.97
75170;SHT31;63749;49.186;9.222;2023-10-09T09:29:15;19.59;67.34
75170;SHT31;63749;49.186;9.222;2023-10-09T09:31:54;19.69;66.60
75170;SHT31;63749;49.186;9.222;2023-10-09T09:34:20;19.53;66.17
75170;SHT31;63749;49.186;9.222;2023-10-09T09:36:57;19.46;65.99
75170;SHT31;63749;49.186;9.222;2023-10-09T09:39:25;19.56;65.46
75170;SHT31;63749;49.186;9.222;2023-10-09T09:41:55;19.66;66.01
75170;SHT31;63749;49.186;9.222;2023-10-09T09:44:22;19.67;66.29
75170;SHT31;63749;49.186;9.222;2023-10-09T09:46:52;19.62;66.89
75170;SHT31;63749;49.186;9.222;2023-10-09T09:49:20;19.74;67.07
75170;SHT31;63749;49.186;9.222;2023-10-09T09:51:47;19.76;65.72
75170;SHT31;63749;49.186;9.222;2023-10-09T09:54:16;19.77;64.20
75170;SHT31;63749;49.186;9.222;2023-10-09T09:56:45;19.81;64.55
75170;SHT31;63749;49.186;9.222;2023-10-09T09:59:18;19.87;64.66
75170;SHT31;63749;49.186;9.222;2023-10-09T10:01:54;19.88;65.11
75170;SHT31;63749;49.186;9.222;2023-10-09T10:04:28;19.83;65.27
75170;SHT31;63749;49.186;9.222;2023-10-09T10:06:56;19.83;65.16
75170;SHT31;63749;49.186;9.222;2023-10-09T10:09:38;19.84;65.52
75170;SHT31;63749;49.186;9.222;2023-10-09T10:12:08;19.91;65.26
75170;SHT31;63749;49.186;9.222;2023-10-09T10:14:53;19.74;67.57
75170;SHT31;63749;49.186;9.222;2023-10-09T10:17:22;19.87;67.42
75170;SHT31;63749;49.186;9.222;2023-10-09T10:22:25;19.90;67.16
75170;SHT31;63749;49.186;9.222;2023-10-09T10:24:58;19.90;67.96
75170;SHT31;63749;49.186;9.222;2023-10-09T10:27:28;19.86;68.42
75170;SHT31;63749;49.186;9.222;2023-10-09T10:30:26;19.94;68.04
75170;SHT31;63749;49.186;9.222;2023-10-09T10:32:56;20.04;67.74
75170;SHT31;63749;49.186;9.222;2023-10-09T10:35:45;20.21;67.73
75170;SHT31;63749;49.186;9.222;2023-10-09T10:38:31;20.25;66.89
75170;SHT31;63749;49.186;9.222;2023-10-09T10:41:12;20.31;66.53
75170;SHT31;63749;49.186;9.222;2023-10-09T10:43:39;20.41;67.24
75170;SHT31;63749;49.186;9.222;2023-10-09T10:46:17;20.49;66.16
75170;SHT31;63749;49.186;9.222;2023-10-09T10:48:49;20.41;65.85
75170;SHT31;63749;49.186;9.222;2023-10-09T10:51:14;20.42;66.61
75170;SHT31;63749;49.186;9.222;2023-10-09T10:53:53;20.34;67.32
75170;SHT31;63749;49.186;9.222;2023-10-09T10:56:25;20.22;67.96
75170;SHT31;63749;49.186;9.222;2023-10-09T10:59:02;20.14;69.26
75170;SHT31;63749;49.186;9.222;2023-10-09T11:01:31;20.01;69.68
75170;SHT31;63749;49.186;9.222;2023-10-09T11:04:20;19.97;69.53
75170;SHT31;63749;49.186;9.222;2023-10-09T11:06:56;20.14;66.06
75170;SHT31;63749;49.186;9.222;2023-10-09T11:09:54;20.35;66.17
75170;SHT31;63749;49.186;9.222;2023-10-09T11:12:41;20.48;66.84
75170;SHT31;63749;49.186;9.222;2023-10-09T11:15:10;20.58;64.98
75170;SHT31;63749;49.186;9.222;2023-10-09T11:18:01;20.62;65.77
75170;SHT31;63749;49.186;9.222;2023-10-09T11:20:34;20.69;64.99
75170;SHT31;63749;49.186;9.222;2023-10-09T11:23:00;20.83;65.49
75170;SHT31;63749;49.186;9.222;2023-10-09T11:25:39;21.06;64.28
75170;SHT31;63749;49.186;9.222;2023-10-09T11:28:21;21.10;64.62
75170;SHT31;63749;49.186;9.222;2023-10-09T11:31:05;21.26;64.24
75170;SHT31;63749;49.186;9.222;2023-10-09T11:33:48;21.30;64.44
75170;SHT31;63749;49.186;9.222;2023-10-09T11:36:15;21.43;63.80
75170;SHT31;63749;49.186;9.222;2023-10-09T11:38:40;21.57;63.43
75170;SHT31;63749;49.186;9.222;2023-10-09T11:41:17;21.66;63.09
75170;SHT31;63749;49.186;9.222;2023-10-09T11:43:51;21.78;62.56
75170;SHT31;63749;49.186;9.222;2023-10-09T11:46:17;22.02;62.19
75170;SHT31;63749;49.186;9.222;2023-10-09T11:49:18;22.19;61.30
75170;SHT31;63749;49.186;9.222;2023-10-09T11:51:46;22.53;60.81
75170;SHT31;63749;49.186;9.222;2023-10-09T11:54:34;22.47;60.39
75170;SHT31;63749;49.186;9.222;2023-10-09T11:57:01;22.50;60.10
75170;SHT31;63749;49.186;9.222;2023-10-09T11:59:30;22.68;59.57
75170;SHT31;63749;49.186;9.222;2023-10-09T12:02:07;22.42;59.87
75170;SHT31;63749;49.186;9.222;2023-10-09T12:04:37;22.47;59.58
75170;SHT31;63749;49.186;9.222;2023-10-09T12:07:02;22.60;60.25
75170;SHT31;63749;49.186;9.222;2023-10-09T12:09:35;22.60;59.43
75170;SHT31;63749;49.186;9.222;2023-10-09T12:12:02;22.68;58.96
75170;SHT31;63749;49.186;9.222;2023-10-09T12:14:28;22.88;58.41
75170;SHT31;63749;49.186;9.222;2023-10-09T12:17:02;23.22;57.09
75170;SHT31;63749;49.186;9.222;2023-10-09T12:19:37;23.48;56.83
75170;SHT31;63749;49.186;9.222;2023-10-09T12:22:05;23.69;56.08
75170;SHT31;63749;49.186;9.222;2023-10-09T12:24:32;23.74;56.12
75170;SHT31;63749;49.186;9.222;2023-10-09T12:26:58;23.69;56.33
75170;SHT31;63749;49.186;9.222;2023-10-09T12:29:24;23.76;55.98
75170;SHT31;63749;49.186;9.222;2023-10-09T12:31:50;23.71;55.96
75170;SHT31;63749;49.186;9.222;2023-10-09T12:34:24;23.55;57.41
75170;SHT31;63749;49.186;9.222;2023-10-09T12:36:54;23.37;57.84
75170;SHT31;63749;49.186;9.222;2023-10-09T12:39:21;23.52;58.09
75170;SHT31;63749;49.186;9.222;2023-10-09T12:41:50;23.48;57.12
75170;SHT31;63749;49.186;9.222;2023-10-09T12:44:19;23.79;56.56
75170;SHT31;63749;49.186;9.222;2023-10-09T12:46:45;23.96;57.35
75170;SHT31;63749;49.186;9.222;2023-10-09T12:49:20;24.14;55.76
75170;SHT31;63749;49.186;9.222;2023-10-09T12:51:51;24.45;55.14
75170;SHT31;63749;49.186;9.222;2023-10-09T12:54:16;24.64;54.57
75170;SHT31;63749;49.186;9.222;2023-10-09T12:56:42;24.79;54.05
75170;SHT31;63749;49.186;9.222;2023-10-09T12:59:08;24.71;54.59
75170;SHT31;63749;49.186;9.222;2023-10-09T13:01:42;24.64;54.06
75170;SHT31;63749;49.186;9.222;2023-10-09T13:04:11;24.92;53.35
75170;SHT31;63749;49.186;9.222;2023-10-09T13:06:40;25.31;52.13
75170;SHT31;63749;49.186;9.222;2023-10-09T13:09:10;25.64;51.18
75170;SHT31;63749;49.186;9.222;2023-10-09T13:11:36;25.73;51.44
75170;SHT31;63749;49.186;9.222;2023-10-09T13:14:02;26.57;49.03
75170;SHT31;63749;49.186;9.222;2023-10-09T13:16:36;26.94;48.42
75170;SHT31;63749;49.186;9.222;2023-10-09T13:19:03;27.46;47.70
75170;SHT31;63749;49.186;9.222;2023-10-09T13:21:35;27.05;47.90
75170;SHT31;63749;49.186;9.222;2023-10-09T13:24:04;26.37;49.29
75170;SHT31;63749;49.186;9.222;2023-10-09T13:26:29;26.29;49.29
75170;SHT31;63749;49.186;9.222;2023-10-09T13:28:58;25.92;50.32
75170;SHT31;63749;49.186;9.222;2023-10-09T13:31:25;26.60;48.10
75170;SHT31;63749;49.186;9.222;2023-10-09T13:33:54;27.96;44.99
75170;SHT31;63749;49.186;9.222;2023-10-09T13:36:21;28.98;43.02
75170;SHT31;63749;49.186;9.222;2023-10-09T13:38:55;29.60;42.97
75170;SHT31;63749;49.186;9.222;2023-10-09T13:41:21;29.81;39.80
75170;SHT31;63749;49.186;9.222;2023-10-09T13:43:47;30.05;39.89
75170;SHT31;63749;49.186;9.222;2023-10-09T13:46:13;29.16;41.26
75170;SHT31;63749;49.186;9.222;2023-10-09T13:48:41;29.94;40.62
75170;SHT31;63749;49.186;9.222;2023-10-09T13:51:09;30.31;39.14
75170;SHT31;63749;49.186;9.222;2023-10-09T13:53:42;29.39;40.43
75170;SHT31;63749;49.186;9.222;2023-10-09T13:56:15;29.22;40.76
75170;SHT31;63749;49.186;9.222;2023-10-09T13:58:51;28.60;40.74
75170;SHT31;63749;49.186;9.222;2023-10-09T14:01:19;28.58;41.10
75170;SHT31;63749;49.186;9.222;2023-10-09T14:03:59;28.52;39.84
75170;SHT31;63749;49.186;9.222;2023-10-09T14:06:25;28.03;40.44
75170;SHT31;63749;49.186;9.222;2023-10-09T14:09:02;28.04;40.08
75170;SHT31;63749;49.186;9.222;2023-10-09T14:11:34;28.04;40.22
75170;SHT31;63749;49.186;9.222;2023-10-09T14:14:09;27.97;40.55
75170;SHT31;63749;49.186;9.222;2023-10-09T14:16:38;27.76;41.04
75170;SHT31;63749;49.186;9.222;2023-10-09T14:19:08;27.34;42.35
75170;SHT31;63749;49.186;9.222;2023-10-09T14:21:38;27.15;41.85
75170;SHT31;63749;49.186;9.222;2023-10-09T14:24:06;27.53;39.87
75170;SHT31;63749;49.186;9.222;2023-10-09T14:26:41;27.55;40.12
75170;SHT31;63749;49.186;9.222;2023-10-09T14:29:06;27.45;40.34
75170;SHT31;63749;49.186;9.222;2023-10-09T14:31:32;27.69;40.36
75170;SHT31;63749;49.186;9.222;2023-10-09T14:34:01;27.58;40.55
75170;SHT31;63749;49.186;9.222;2023-10-09T14:36:27;27.46;40.47
75170;SHT31;63749;49.186;9.222;2023-10-09T14:38:59;27.43;39.85
75170;SHT31;63749;49.186;9.222;2023-10-09T14:41:25;27.24;40.44
75170;SHT31;63749;49.186;9.222;2023-10-09T14:43:52;27.46;40.39
75170;SHT31;63749;49.186;9.222;2023-10-09T14:46:18;27.49;40.85
75170;SHT31;63749;49.186;9.222;2023-10-09T14:48:51;27.25;41.56
75170;SHT31;63749;49.186;9.222;2023-10-09T14:51:18;27.00;41.14
75170;SHT31;63749;49.186;9.222;2023-10-09T14:53:52;26.73;41.52
75170;SHT31;63749;49.186;9.222;2023-10-09T14:56:18;26.46;41.86
75170;SHT31;63749;49.186;9.222;2023-10-09T14:58:54;26.29;42.83
75170;SHT31;63749;49.186;9.222;2023-10-09T15:01:21;26.49;42.03
75170;SHT31;63749;49.186;9.222;2023-10-09T15:03:49;26.67;42.16
75170;SHT31;63749;49.186;9.222;2023-10-09T15:06:18;26.86;42.28
75170;SHT31;63749;49.186;9.222;2023-10-09T15:08:43;26.77;42.17
75170;SHT31;63749;49.186;9.222;2023-10-09T15:11:09;26.86;42.30
75170;SHT31;63749;49.186;9.222;2023-10-09T15:13:34;26.74;42.19
75170;SHT31;63749;49.186;9.222;2023-10-09T15:16:00;26.37;42.92
75170;SHT31;63749;49.186;9.222;2023-10-09T15:18:28;26.26;43.13
75170;SHT31;63749;49.186;9.222;2023-10-09T15:20:57;26.47;42.72
75170;SHT31;63749;49.186;9.222;2023-10-09T15:23:23;27.07;42.07
75170;SHT31;63749;49.186;9.222;2023-10-09T15:25:48;27.43;41.67
75170;SHT31;63749;49.186;9.222;2023-10-09T15:28:18;27.55;41.14
75170;SHT31;63749;49.186;9.222;2023-10-09T15:30:44;27.37;41.41
75170;SHT31;63749;49.186;9.222;2023-10-09T15:33:14;27.22;41.20
75170;SHT31;63749;49.186;9.222;2023-10-09T15:35:44;27.28;41.89
75170;SHT31;63749;49.186;9.222;2023-10-09T15:38:12;27.32;41.27
75170;SHT31;63749;49.186;9.222;2023-10-09T15:40:39;26.86;42.25
75170;SHT31;63749;49.186;9.222;2023-10-09T15:43:06;26.26;43.59
75170;SHT31;63749;49.186;9.222;2023-10-09T15:45:43;25.81;44.59
75170;SHT31;63749;49.186;9.222;2023-10-09T15:48:13;25.36;45.58
75170;SHT31;63749;49.186;9.222;2023-10-09T15:50:44;25.07;46.53
75170;SHT31;63749;49.186;9.222;2023-10-09T15:53:14;24.79;47.06
75170;SHT31;63749;49.186;9.222;2023-10-09T15:55:43;24.58;48.03
75170;SHT31;63749;49.186;9.222;2023-10-09T15:58:08;24.32;48.42
75170;SHT31;63749;49.186;9.222;2023-10-09T16:00:34;24.14;48.76
75170;SHT31;63749;49.186;9.222;2023-10-09T16:02:59;23.89;49.48
75170;SHT31;63749;49.186;9.222;2023-10-09T16:05:26;23.74;50.16
75170;SHT31;63749;49.186;9.222;2023-10-09T16:07:54;23.62;50.50
75170;SHT31;63749;49.186;9.222;2023-10-09T16:10:21;23.35;51.23
75170;SHT31;63749;49.186;9.222;2023-10-09T16:12:47;23.22;51.83
75170;SHT31;63749;49.186;9.222;2023-10-09T16:15:13;23.10;52.20